Time;durP1;ratioP1;P1;durP2;ratioP2;P2;SDS_P1;SDS_P2;PMS_P1;PMS_P2;Temp;Humidity;BMP_temperature;BMP_pressure;BME280_temperature;BME280_humidity;BME280_pressure;Samples;Min_cycle;Max_cycle;Signal;HPM_P1;HPM_P2
2024/01/14 00:00:33;;;;;;;16.50;8.50;;;;;;;-3.47;56.47;99915.58;105308;1265;60388;-53
2024/01/14 00:03:01;;;;;;;11.60;5.30;;;;;;;-3.46;56.63;99916.06;105260;1260;72978;-53
2024/01/14 00:05:29;;;;;;;14.40;6.20;;;;;;;-3.48;56.58;99907.56;105293;1263;68866;-56
2024/01/14 00:07:57;;;;;;;16.90;6.50;;;;;;;-3.46;56.70;99897.91;106105;1265;71407;-57
2024/01/14 00:10:24;;;;;;;18.80;8.90;;;;;;;-3.42;56.64;99893.34;104850;1263;59669;-55
2024/01/14 00:12:52;;;;;;;17.80;7.80;;;;;;;-3.43;56.65;99888.91;104843;1263;59566;-54
2024/01/14 00:15:19;;;;;;;17.60;6.40;;;;;;;-3.45;56.74;99885.36;104787;1265;73552;-54
2024/01/14 00:17:47;;;;;;;11.60;6.30;;;;;;;-3.46;56.91;99883.30;104844;1261;70253;-55
2024/01/14 00:20:15;;;;;;;14.70;4.40;;;;;;;-3.42;56.89;99880.63;104771;1266;72474;-54
2024/01/14 00:22:43;;;;;;;12.40;4.50;;;;;;;-3.36;56.81;99880.95;104812;1265;61657;-55
2024/01/14 00:25:11;;;;;;;10.70;3.20;;;;;;;-3.25;56.61;99883.70;104974;1260;59747;-56
2024/01/14 00:27:39;;;;;;;9.60;3.30;;;;;;;-3.16;56.48;99876.74;104918;1261;72392;-55
2024/01/14 00:30:07;;;;;;;14.40;7.70;;;;;;;-3.06;56.45;99870.25;105026;1266;69617;-55
2024/01/14 00:32:35;;;;;;;12.70;4.30;;;;;;;-2.95;56.49;99872.12;105120;1263;72610;-56
2024/01/14 00:35:04;;;;;;;10.70;4.00;;;;;;;-2.84;56.50;99866.42;104857;1263;60843;-55
2024/01/14 00:37:32;;;;;;;13.40;5.20;;;;;;;-2.70;56.40;99867.70;105104;1261;60017;-55
2024/01/14 00:39:59;;;;;;;14.20;6.40;;;;;;;-2.62;56.37;99863.13;105259;1261;73136;-55
2024/01/14 00:42:27;;;;;;;9.90;4.10;;;;;;;-2.59;56.25;99858.75;104868;1264;69260;-56
2024/01/14 00:44:54;;;;;;;17.00;6.70;;;;;;;-2.47;56.04;99854.89;104841;1258;73116;-56
2024/01/14 00:47:22;;;;;;;11.10;5.40;;;;;;;-2.39;55.73;99852.91;104995;1262;59778;-56
2024/01/14 00:49:50;;;;;;;15.60;6.10;;;;;;;-2.36;55.65;99852.10;105455;1264;59976;-53
2024/01/14 00:52:17;;;;;;;9.60;4.40;;;;;;;-2.38;55.59;99843.23;104920;1260;73022;-55
2024/01/14 00:54:45;;;;;;;12.20;5.10;;;;;;;-2.40;55.55;99836.44;104889;1264;68927;-54
2024/01/14 00:57:13;;;;;;;13.40;6.20;;;;;;;-2.43;55.53;99830.02;104890;1264;72685;-55
2024/01/14 00:59:40;;;;;;;13.70;6.40;;;;;;;-2.56;55.71;99828.25;104858;1260;59756;-55
2024/01/14 01:02:08;;;;;;;16.10;7.00;;;;;;;-2.68;55.91;99827.98;105091;1261;60061;-54
2024/01/14 01:04:36;;;;;;;13.70;5.70;;;;;;;-2.71;56.01;99823.78;105082;1264;73642;-55
2024/01/14 01:07:03;;;;;;;13.90;6.10;;;;;;;-2.74;56.10;99820.64;104897;1265;68508;-55
2024/01/14 01:09:31;;;;;;;14.10;6.50;;;;;;;-2.77;56.29;99815.91;104822;1260;72715;-55
2024/01/14 01:11:59;;;;;;;16.40;6.40;;;;;;;-2.72;56.07;99812.48;105209;1259;59789;-55
2024/01/14 01:14:27;;;;;;;17.00;6.50;;;;;;;-2.82;56.44;99811.77;104871;1264;60002;-56
2024/01/14 01:16:54;;;;;;;12.40;5.30;;;;;;;-2.82;56.38;99809.55;105327;1261;71823;-54
2024/01/14 01:19:22;;;;;;;14.60;5.50;;;;;;;-2.69;56.24;99806.89;104880;1260;69956;-56
2024/01/14 01:21:51;;;;;;;17.60;6.80;;;;;;;-2.66;56.19;99801.80;105461;1265;72504;-55
2024/01/14 01:24:19;;;;;;;11.40;5.90;;;;;;;-2.63;56.26;99802.88;105566;1260;59628;-54
2024/01/14 01:26:46;;;;;;;17.90;7.60;;;;;;;-2.60;56.24;99800.05;105577;1259;60124;-56
2024/01/14 01:29:14;;;;;;;13.60;6.80;;;;;;;-2.59;56.18;99794.70;104735;1265;71846;-57
2024/01/14 01:31:42;;;;;;;13.50;6.10;;;;;;;-2.59;56.14;99788.51;104773;1260;70117;-56
2024/01/14 01:34:17;;;;;;;13.90;6.60;;;;;;;-2.62;56.18;99787.39;104831;1264;71484;-55
2024/01/14 01:36:45;;;;;;;16.30;6.40;;;;;;;-2.62;56.29;99783.98;104830;1260;60069;-55
2024/01/14 01:39:14;;;;;;;15.20;6.00;;;;;;;-2.63;56.39;99776.96;104889;1264;60276;-55
2024/01/14 01:41:41;;;;;;;14.30;5.60;;;;;;;-2.61;56.42;99776.22;105009;1260;75038;-55
2024/01/14 01:44:09;;;;;;;15.70;6.30;;;;;;;-2.71;56.71;99770.05;104965;1260;70331;-55
2024/01/14 01:46:37;;;;;;;13.20;4.60;;;;;;;-2.69;56.85;99764.11;104836;1260;72660;-55
2024/01/14 01:49:04;;;;;;;9.60;3.10;;;;;;;-2.60;56.82;99762.78;104885;1262;61681;-56
2024/01/14 01:51:32;;;;;;;11.20;4.00;;;;;;;-2.48;56.87;99758.23;104858;1265;60534;-57
2024/01/14 01:54:00;;;;;;;12.20;4.70;;;;;;;-2.37;56.80;99759.73;105353;1263;74240;-55
2024/01/14 01:56:27;;;;;;;8.80;3.00;;;;;;;-2.27;56.78;99757.30;105233;1260;70298;-57
2024/01/14 01:58:55;;;;;;;10.20;3.50;;;;;;;-2.15;56.82;99757.36;105221;1261;71491;-55
2024/01/14 02:01:22;;;;;;;13.90;5.30;;;;;;;-1.99;56.67;99742.14;104961;1260;60545;-55
2024/01/14 02:03:50;;;;;;;15.20;6.20;;;;;;;-1.88;56.44;99732.27;104874;1259;60572;-54
2024/01/14 02:06:18;;;;;;;18.50;6.30;;;;;;;-1.80;56.41;99728.16;105547;1260;71421;-51
2024/01/14 02:08:47;;;;;;;16.00;6.70;;;;;;;-1.73;56.32;99727.89;104932;1263;69377;-57
2024/01/14 02:11:14;;;;;;;11.20;5.30;;;;;;;-1.82;56.33;99728.92;104942;1263;72978;-56
2024/01/14 02:13:42;;;;;;;12.40;5.60;;;;;;;-1.76;56.20;99723.20;104868;1260;60715;-56
2024/01/14 02:16:10;;;;;;;17.60;7.60;;;;;;;-1.73;56.08;99721.20;104978;1261;61729;-56
2024/01/14 02:18:38;;;;;;;12.10;5.30;;;;;;;-1.75;56.23;99714.73;105085;1260;73131;-56
2024/01/14 02:21:06;;;;;;;15.10;5.90;;;;;;;-1.76;56.05;99710.65;104935;1265;69971;-56
2024/01/14 02:23:35;;;;;;;17.60;6.40;;;;;;;-1.78;56.16;99705.92;104921;1260;73209;-56
2024/01/14 02:26:03;;;;;;;14.10;6.70;;;;;;;-1.82;56.18;99702.82;104880;1260;60549;-56
2024/01/14 02:28:31;;;;;;;14.10;6.60;;;;;;;-1.86;56.27;99696.41;105251;1260;60562;-55
2024/01/14 02:30:59;;;;;;;19.60;6.70;;;;;;;-1.88;56.37;99690.83;105256;1260;73867;-56
2024/01/14 02:33:27;;;;;;;12.90;5.90;;;;;;;-1.95;56.54;99686.97;105350;1260;70534;-56
2024/01/14 02:35:55;;;;;;;16.40;6.00;;;;;;;-1.92;56.64;99683.23;105463;1263;70781;-56
2024/01/14 02:38:22;;;;;;;16.30;6.50;;;;;;;-1.94;56.57;99680.58;105403;1260;60539;-56
2024/01/14 02:40:50;;;;;;;17.20;7.30;;;;;;;-2.08;57.09;99676.34;105510;1265;60463;-56
2024/01/14 02:43:18;;;;;;;13.20;5.80;;;;;;;-2.12;57.22;99671.83;105543;1260;72647;-55
2024/01/14 02:45:45;;;;;;;13.70;6.20;;;;;;;-2.05;57.10;99669.35;104892;1260;68335;-56
2024/01/14 02:48:13;;;;;;;15.00;6.00;;;;;;;-2.03;57.10;99666.70;105001;1260;72005;-57
2024/01/14 02:50:41;;;;;;;15.60;5.10;;;;;;;-2.05;57.31;99664.52;104910;1265;60572;-56
2024/01/14 02:53:09;;;;;;;19.50;7.70;;;;;;;-2.08;57.34;99661.36;105161;1262;60434;-54
2024/01/14 02:55:36;;;;;;;12.10;6.40;;;;;;;-2.08;57.61;99655.18;104918;1264;73847;-55
2024/01/14 02:58:04;;;;;;;12.90;4.90;;;;;;;-2.08;57.72;99652.93;104873;1260;70240;-55
2024/01/14 03:00:31;;;;;;;9.40;5.00;;;;;;;-2.11;57.97;99647.91;104984;1263;71925;-55
2024/01/14 03:02:59;;;;;;;12.00;5.50;;;;;;;-2.06;58.15;99645.30;104939;1260;61629;-55
2024/01/14 03:05:27;;;;;;;12.00;4.70;;;;;;;-1.95;58.17;99638.86;104874;1264;60373;-55
2024/01/14 03:07:54;;;;;;;13.20;4.50;;;;;;;-1.84;58.31;99638.42;104912;1260;74373;-55
2024/01/14 03:10:23;;;;;;;11.50;5.90;;;;;;;-1.73;58.20;99634.00;104836;1265;70500;-55
2024/01/14 03:12:51;;;;;;;13.50;5.40;;;;;;;-1.61;58.32;99631.30;105410;1265;71847;-55
2024/01/14 03:15:18;;;;;;;15.10;5.40;;;;;;;-1.52;58.38;99626.23;104908;1260;60585;-55
2024/01/14 03:17:46;;;;;;;16.20;6.20;;;;;;;-1.45;58.35;99623.56;104904;1265;60489;-54
2024/01/14 03:20:14;;;;;;;11.60;5.80;;;;;;;-1.42;58.43;99616.73;104911;1264;73847;-55
2024/01/14 03:22:42;;;;;;;15.90;7.10;;;;;;;-1.38;58.61;99610.69;105618;1260;70882;-56
2024/01/14 03:25:10;;;;;;;16.30;6.50;;;;;;;-1.33;58.61;99610.30;104947;1261;71844;-55
2024/01/14 03:27:37;;;;;;;16.70;7.00;;;;;;;-1.34;58.53;99602.95;105013;1265;60578;-55
2024/01/14 03:30:06;;;;;;;16.40;7.10;;;;;;;-1.39;58.48;99601.08;104888;1260;60600;-55
2024/01/14 03:32:33;;;;;;;17.10;7.00;;;;;;;-1.43;58.54;99599.20;104894;1259;72729;-55
2024/01/14 03:35:01;;;;;;;14.40;6.30;;;;;;;-1.47;58.35;99594.89;105164;1262;68867;-56
2024/01/14 03:37:29;;;;;;;14.20;6.20;;;;;;;-1.54;58.50;99593.46;104871;1260;72651;-57
2024/01/14 03:39:57;;;;;;;19.70;8.00;;;;;;;-1.56;58.57;99590.13;104964;1264;61612;-55
2024/01/14 03:42:24;;;;;;;14.60;6.30;;;;;;;-1.60;58.75;99587.92;105331;1260;60566;-56
2024/01/14 03:44:52;;;;;;;18.10;8.00;;;;;;;-1.64;58.84;99582.73;104904;1265;73384;-55
2024/01/14 03:47:20;;;;;;;13.20;5.70;;;;;;;-1.66;58.87;99581.09;105622;1260;70166;-55
2024/01/14 03:49:48;;;;;;;11.60;5.70;;;;;;;-1.69;58.99;99572.63;105481;1264;72184;-56
2024/01/14 03:52:16;;;;;;;12.50;6.70;;;;;;;-1.67;58.94;99563.58;104861;1265;60437;-55
2024/01/14 03:54:43;;;;;;;15.60;3.80;;;;;;;-1.63;58.97;99561.00;105117;1262;60555;-56
2024/01/14 03:57:11;;;;;;;14.60;4.10;;;;;;;-1.44;58.64;99558.84;104920;1260;73800;-57
2024/01/14 03:59:38;;;;;;;12.30;3.80;;;;;;;-1.35;58.48;99557.88;105094;1260;69054;-56
2024/01/14 04:02:06;;;;;;;11.40;4.00;;;;;;;-1.24;58.62;99558.83;104879;1260;72592;-55
2024/01/14 04:04:34;;;;;;;16.50;5.50;;;;;;;-1.13;58.74;99559.52;104933;1260;61059;-55
2024/01/14 04:07:02;;;;;;;11.10;4.90;;;;;;;-1.01;58.66;99558.10;104877;1264;60585;-55
2024/01/14 04:09:29;;;;;;;12.50;5.20;;;;;;;-0.92;58.56;99561.65;105237;1261;72093;-56
2024/01/14 04:11:57;;;;;;;13.60;5.10;;;;;;;-0.89;58.64;99556.70;105367;1260;70087;-55
2024/01/14 04:14:25;;;;;;;11.60;5.70;;;;;;;-0.89;58.69;99562.58;104871;1260;71958;-55
2024/01/14 04:16:52;;;;;;;19.80;6.90;;;;;;;-0.90;58.72;99553.69;105219;1260;60448;-56
2024/01/14 04:19:20;;;;;;;17.20;6.70;;;;;;;-0.89;58.76;99551.58;105558;1265;61530;-55
2024/01/14 04:21:48;;;;;;;13.50;6.90;;;;;;;-0.89;58.76;99550.17;105636;1260;73794;-57
2024/01/14 04:24:16;;;;;;;15.10;5.90;;;;;;;-0.90;58.71;99545.58;104915;1260;68166;-58
2024/01/14 04:26:44;;;;;;;17.00;7.20;;;;;;;-0.91;58.79;99542.70;104828;1260;63682;-55
2024/01/14 04:29:11;;;;;;;12.80;6.00;;;;;;;-0.93;58.73;99540.70;105002;1264;62759;-56
2024/01/14 04:31:39;;;;;;;14.10;7.00;;;;;;;-0.97;58.66;99538.98;104852;1263;60568;-57
2024/01/14 04:34:07;;;;;;;13.30;5.70;;;;;;;-1.02;58.84;99535.27;104884;1258;73807;-56
2024/01/14 04:36:35;;;;;;;15.50;6.30;;;;;;;-1.05;58.94;99532.84;104856;1261;69261;-56
2024/01/14 04:39:03;;;;;;;19.70;7.00;;;;;;;-1.09;58.89;99526.64;104815;1261;74964;-55
2024/01/14 04:41:30;;;;;;;15.60;6.90;;;;;;;-1.12;59.05;99519.72;105155;1266;60516;-55
2024/01/14 04:43:58;;;;;;;14.50;5.50;;;;;;;-1.17;59.16;99515.14;104865;1261;60556;-54
2024/01/14 04:46:26;;;;;;;12.60;6.50;;;;;;;-1.21;59.27;99515.11;104691;1261;73590;-55
2024/01/14 04:48:54;;;;;;;12.90;5.80;;;;;;;-1.20;59.46;99512.33;105313;1266;69196;-54
2024/01/14 04:51:22;;;;;;;16.40;5.50;;;;;;;-1.20;59.66;99513.21;105414;1265;71756;-56
2024/01/14 04:53:50;;;;;;;15.10;5.90;;;;;;;-1.14;59.60;99511.02;105474;1260;60856;-54
2024/01/14 04:56:17;;;;;;;15.60;5.20;;;;;;;-1.02;59.47;99510.14;105488;1265;60392;-54
2024/01/14 04:58:45;;;;;;;15.20;5.70;;;;;;;-0.92;59.46;99504.34;104917;1260;73819;-55
2024/01/14 05:01:13;;;;;;;12.30;4.80;;;;;;;-0.83;59.40;99504.25;104872;1266;69249;-53
2024/01/14 05:03:40;;;;;;;12.80;4.60;;;;;;;-0.77;59.48;99497.77;105721;1260;70792;-55
2024/01/14 05:06:08;;;;;;;16.90;6.90;;;;;;;-0.69;59.63;99496.70;104944;1260;60887;-56
2024/01/14 05:08:38;;;;;;;13.40;3.70;;;;;;;-0.62;59.62;99492.23;105167;1262;60431;-57
2024/01/14 05:11:05;;;;;;;16.70;5.60;;;;;;;-0.61;59.76;99488.21;105262;1263;73814;-55
2024/01/14 05:13:33;;;;;;;15.20;6.60;;;;;;;-0.60;59.83;99486.27;104877;1261;70268;-54
2024/01/14 05:16:01;;;;;;;16.10;6.20;;;;;;;-0.63;59.89;99483.15;105191;1260;62476;-51
2024/01/14 05:18:29;;;;;;;16.40;6.80;;;;;;;-0.68;59.92;99482.52;105167;1260;60542;-52
2024/01/14 05:20:57;;;;;;;13.60;5.80;;;;;;;-0.73;59.96;99481.58;105293;1263;60357;-52
2024/01/14 05:23:24;;;;;;;12.30;4.80;;;;;;;-0.80;60.19;99479.98;104895;1265;73937;-51
2024/01/14 05:25:52;;;;;;;14.50;6.90;;;;;;;-0.85;60.32;99474.55;104960;1263;70379;-53
2024/01/14 05:28:20;;;;;;;14.30;5.80;;;;;;;-0.90;60.52;99470.15;104840;1260;73135;-52
2024/01/14 05:30:47;;;;;;;13.30;5.30;;;;;;;-0.92;60.68;99468.34;104838;1260;60542;-54
2024/01/14 05:33:15;;;;;;;12.50;5.20;;;;;;;-0.95;60.78;99467.93;105011;1265;60709;-53
2024/01/14 05:35:43;;;;;;;15.90;6.10;;;;;;;-0.96;60.81;99468.38;104972;1260;73839;-53
2024/01/14 05:38:10;;;;;;;13.10;5.40;;;;;;;-0.96;60.98;99467.68;104968;1264;69959;-56
2024/01/14 05:40:39;;;;;;;13.30;5.40;;;;;;;-0.88;61.04;99468.20;104825;1262;72769;-53
2024/01/14 05:43:06;;;;;;;13.70;6.10;;;;;;;-0.77;60.85;99473.14;104959;1266;60499;-54
2024/01/14 05:45:34;;;;;;;12.90;4.70;;;;;;;-0.66;60.89;99473.48;104845;1264;60388;-54
2024/01/14 05:48:02;;;;;;;14.70;5.90;;;;;;;-0.61;60.90;99468.42;104883;1258;63679;-53
2024/01/14 05:50:30;;;;;;;13.70;5.90;;;;;;;-0.59;61.15;99470.19;105256;1260;61539;-54
2024/01/14 05:52:58;;;;;;;14.50;5.90;;;;;;;-0.58;61.17;99471.52;104830;1260;72678;-56
2024/01/14 05:55:25;;;;;;;15.90;8.30;;;;;;;-0.56;61.15;99468.54;105612;1261;60507;-54
2024/01/14 05:57:53;;;;;;;10.80;4.90;;;;;;;-0.57;61.25;99466.63;105533;1264;60632;-54
2024/01/14 06:00:22;;;;;;;10.50;4.90;;;;;;;-0.59;61.40;99465.38;104839;1264;73977;-54
2024/01/14 06:02:50;;;;;;;14.80;6.10;;;;;;;-0.58;61.31;99466.71;105572;1260;61662;-54
2024/01/14 06:05:18;;;;;;;19.60;5.40;;;;;;;-0.58;61.47;99466.54;104894;1265;70436;-53
2024/01/14 06:07:52;;;;;;;14.60;5.90;;;;;;;-0.59;61.51;99466.23;104882;1261;61541;-54
2024/01/14 06:10:20;;;;;;;14.50;6.30;;;;;;;-0.59;61.59;99467.95;105478;1267;60501;-55
2024/01/14 06:12:47;;;;;;;12.00;4.70;;;;;;;-0.59;61.65;99464.17;104871;1260;72747;-56
2024/01/14 06:15:15;;;;;;;14.70;4.90;;;;;;;-0.49;61.47;99465.10;104971;1262;70115;-50
2024/01/14 06:17:43;;;;;;;15.40;6.70;;;;;;;-0.38;61.38;99466.62;104768;1264;71192;-57
2024/01/14 06:20:11;;;;;;;9.80;4.30;;;;;;;-0.28;61.26;99469.91;104887;1266;60900;-55
2024/01/14 06:22:38;;;;;;;8.60;3.50;;;;;;;-0.19;61.14;99472.21;104990;1260;61566;-56
2024/01/14 06:25:07;;;;;;;12.10;5.60;;;;;;;-0.09;61.25;99469.48;104937;1262;74330;-53
2024/01/14 06:27:35;;;;;;;14.30;5.30;;;;;;;-0.04;61.25;99467.48;105218;1261;70294;-56
2024/01/14 06:30:03;;;;;;;16.80;8.50;;;;;;;-0.04;61.31;99467.48;104848;1260;63820;-56
2024/01/14 06:32:31;;;;;;;9.80;4.40;;;;;;;0.02;61.14;99463.09;105347;1260;60579;-56
2024/01/14 06:34:59;;;;;;;10.70;5.00;;;;;;;0.03;61.09;99456.80;105393;1265;60003;-56
2024/01/14 06:37:27;;;;;;;13.60;5.50;;;;;;;0.00;61.12;99455.56;106191;1262;73834;-55
2024/01/14 06:39:55;;;;;;;12.60;5.50;;;;;;;-0.01;61.17;99453.89;104968;1261;70391;-55
2024/01/14 06:42:23;;;;;;;8.60;3.90;;;;;;;-0.02;61.31;99455.52;104866;1264;70423;-56
2024/01/14 06:44:50;;;;;;;11.80;5.00;;;;;;;-0.03;61.31;99455.89;108772;1258;59311;-57
2024/01/14 06:47:18;;;;;;;14.40;6.20;;;;;;;-0.04;61.37;99450.61;108804;1259;58645;-57
2024/01/14 06:49:45;;;;;;;17.20;7.60;;;;;;;-0.00;61.42;99448.00;108835;1259;74835;-54
2024/01/14 06:52:25;;;;;;;17.00;6.10;;;;;;;0.03;61.41;99443.69;105399;1263;61328;-56
2024/01/14 06:54:52;;;;;;;17.60;8.50;;;;;;;0.14;61.37;99438.81;104692;1260;72436;-56
2024/01/14 06:57:20;;;;;;;19.00;6.40;;;;;;;0.28;61.28;99438.27;108756;1264;60464;-56
2024/01/14 06:59:47;;;;;;;17.90;6.50;;;;;;;0.41;61.25;99435.36;108804;1260;60012;-56
2024/01/14 07:02:15;;;;;;;14.80;6.80;;;;;;;0.53;61.23;99434.71;108759;1264;73844;-57
2024/01/14 07:04:42;;;;;;;16.50;6.90;;;;;;;0.66;61.06;99438.66;108747;1259;69066;-56
2024/01/14 07:07:10;;;;;;;14.60;6.40;;;;;;;0.74;61.19;99439.23;108732;1259;75280;-56
2024/01/14 07:09:38;;;;;;;22.20;11.20;;;;;;;0.79;61.28;99437.61;108769;1263;58203;-56
2024/01/14 07:12:06;;;;;;;16.50;6.50;;;;;;;0.86;61.29;99434.44;108797;1258;58723;-56
2024/01/14 07:14:33;;;;;;;25.20;10.10;;;;;;;0.92;61.14;99432.04;108749;1261;73279;-56
2024/01/14 07:17:01;;;;;;;30.10;12.80;;;;;;;0.95;61.14;99433.45;108819;1260;61417;-56
2024/01/14 07:19:28;;;;;;;18.50;9.30;;;;;;;0.97;61.16;99432.84;106838;1261;63797;-56
2024/01/14 07:21:56;;;;;;;19.00;8.40;;;;;;;0.96;61.19;99427.54;104840;1260;60532;-55
2024/01/14 07:24:23;;;;;;;16.30;6.10;;;;;;;0.93;61.30;99429.39;104947;1259;60562;-57
2024/01/14 07:26:51;;;;;;;13.40;5.40;;;;;;;0.93;61.33;99429.90;104911;1263;71932;-56
2024/01/14 07:29:19;;;;;;;11.70;4.70;;;;;;;1.02;61.33;99427.73;104820;1266;68409;-56
2024/01/14 07:31:46;;;;;;;12.80;4.60;;;;;;;1.11;61.36;99420.98;105586;1265;72755;-57
2024/01/14 07:34:14;;;;;;;11.70;6.10;;;;;;;1.19;61.39;99418.66;104924;1266;61272;-57
2024/01/14 07:36:41;;;;;;;7.90;4.00;;;;;;;1.25;61.59;99412.77;104876;1270;60371;-56
2024/01/14 07:39:09;;;;;;;14.00;5.00;;;;;;;1.29;61.69;99416.70;104837;1258;72904;-56
2024/01/14 07:41:38;;;;;;;11.50;5.30;;;;;;;1.33;61.87;99413.73;104916;1261;70933;-57
2024/01/14 07:44:09;;;;;;;11.90;5.80;;;;;;;1.35;61.80;99413.77;105049;1266;62522;-58
2024/01/14 07:46:36;;;;;;;11.20;4.90;;;;;;;1.34;61.79;99415.03;105200;1261;60543;-59
2024/01/14 07:49:04;;;;;;;11.80;4.90;;;;;;;1.33;61.79;99416.47;105075;1264;60489;-60
2024/01/14 07:51:33;;;;;;;15.80;5.40;;;;;;;1.29;61.87;99415.64;104937;1264;73778;-59
2024/01/14 07:54:01;;;;;;;13.40;4.90;;;;;;;1.34;61.82;99408.98;104874;1261;70400;-61
2024/01/14 07:56:28;;;;;;;10.80;4.40;;;;;;;1.44;61.86;99410.83;104895;1264;74735;-58
2024/01/14 07:58:56;;;;;;;10.40;3.90;;;;;;;1.54;61.85;99408.38;105112;1258;62896;-58
2024/01/14 08:01:23;;;;;;;9.10;3.60;;;;;;;1.57;61.76;99409.21;104824;1263;60559;-58
2024/01/14 08:03:51;;;;;;;11.80;5.10;;;;;;;1.57;61.93;99409.56;104881;1264;73450;-58
2024/01/14 08:06:21;;;;;;;16.40;6.20;;;;;;;1.57;62.01;99405.04;105470;1265;69557;-58
2024/01/14 08:08:49;;;;;;;14.70;7.30;;;;;;;1.53;62.09;99409.94;105525;1264;72910;-57
2024/01/14 08:11:16;;;;;;;10.40;4.90;;;;;;;1.53;62.12;99408.23;104865;1260;60613;-57
2024/01/14 08:13:44;;;;;;;12.60;4.50;;;;;;;1.53;62.06;99408.91;104818;1265;60472;-56
2024/01/14 08:16:13;;;;;;;13.10;6.50;;;;;;;1.58;62.07;99408.63;104818;1264;72695;-56
2024/01/14 08:18:41;;;;;;;10.70;3.80;;;;;;;1.69;61.95;99410.59;105001;1266;69695;-56
2024/01/14 08:21:09;;;;;;;13.00;6.30;;;;;;;1.76;61.92;99408.10;104888;1264;72444;-56
2024/01/14 08:23:37;;;;;;;14.10;5.90;;;;;;;1.79;61.96;99408.75;105158;1263;60547;-56
2024/01/14 08:26:05;;;;;;;18.20;6.90;;;;;;;1.78;61.86;99407.43;105064;1263;60455;-57
2024/01/14 08:28:35;;;;;;;12.40;4.70;;;;;;;1.74;62.04;99408.59;105000;1260;72640;-58
2024/01/14 08:31:02;;;;;;;12.00;5.10;;;;;;;1.72;62.20;99407.64;105176;1266;69027;-57
2024/01/14 08:33:30;;;;;;;10.60;4.20;;;;;;;1.71;62.18;99401.69;105153;1264;71411;-58
2024/01/14 08:35:59;;;;;;;11.20;4.00;;;;;;;1.70;62.34;99406.92;104866;1265;60880;-58
2024/01/14 08:38:26;;;;;;;9.50;4.40;;;;;;;1.76;62.17;99398.41;105480;1261;60536;-58
2024/01/14 08:40:54;;;;;;;11.70;4.80;;;;;;;1.87;61.97;99397.56;105447;1265;73804;-57
2024/01/14 08:43:21;;;;;;;11.20;5.40;;;;;;;2.00;61.93;99393.02;104870;1264;68848;-58
2024/01/14 08:45:49;;;;;;;9.20;4.10;;;;;;;2.11;61.70;99391.15;104900;1270;72629;-57
2024/01/14 08:48:17;;;;;;;10.90;4.30;;;;;;;2.14;61.46;99386.29;104992;1262;60438;-57
2024/01/14 08:50:45;;;;;;;9.00;3.40;;;;;;;2.17;61.38;99379.86;105026;1261;60626;-58
2024/01/14 08:53:13;;;;;;;10.30;4.50;;;;;;;2.23;61.30;99383.13;104994;1264;71900;-59
2024/01/14 08:55:41;;;;;;;11.80;4.20;;;;;;;2.27;60.93;99375.98;105018;1266;68757;-59
2024/01/14 08:58:09;;;;;;;7.90;2.90;;;;;;;2.30;60.58;99371.96;104900;1263;71816;-58
2024/01/14 09:00:36;;;;;;;10.70;4.30;;;;;;;2.41;60.21;99368.89;104864;1266;60354;-59
2024/01/14 09:03:04;;;;;;;10.70;4.30;;;;;;;2.51;59.95;99373.10;105006;1266;60460;-58
2024/01/14 09:05:32;;;;;;;7.40;3.10;;;;;;;2.59;59.58;99363.23;104912;1265;72584;-58
2024/01/14 09:08:00;;;;;;;9.80;3.70;;;;;;;2.65;59.49;99364.45;104870;1264;69044;-58
2024/01/14 09:10:28;;;;;;;10.70;3.90;;;;;;;2.68;59.13;99356.45;104853;1262;72698;-60
2024/01/14 09:12:55;;;;;;;9.20;3.70;;;;;;;2.73;58.90;99363.90;105465;1262;61577;-60
2024/01/14 09:15:23;;;;;;;11.40;3.90;;;;;;;2.81;58.23;99360.66;105067;1261;60463;-61
2024/01/14 09:17:51;;;;;;;10.60;4.80;;;;;;;2.82;57.94;99352.64;104726;1267;73063;-60
2024/01/14 09:20:19;;;;;;;10.30;3.90;;;;;;;2.76;57.97;99356.26;105459;1264;70650;-59
2024/01/14 09:22:47;;;;;;;12.10;3.90;;;;;;;2.79;57.75;99355.58;105389;1263;72293;-58
2024/01/14 09:25:15;;;;;;;8.50;3.20;;;;;;;2.85;57.22;99356.20;104907;1264;60453;-56
2024/01/14 09:27:43;;;;;;;7.80;4.30;;;;;;;2.90;56.84;99353.44;104805;1268;60395;-58
2024/01/14 09:30:12;;;;;;;8.90;3.70;;;;;;;2.89;56.79;99346.64;104903;1264;74369;-58
2024/01/14 09:32:40;;;;;;;10.60;4.30;;;;;;;2.81;56.67;99344.34;104957;1264;61308;-58
2024/01/14 09:35:08;;;;;;;10.20;4.60;;;;;;;2.61;57.00;99348.58;104856;1261;71785;-60
2024/01/14 09:37:36;;;;;;;10.40;3.40;;;;;;;2.50;56.98;99344.77;104885;1264;60484;-58
2024/01/14 09:40:06;;;;;;;10.80;5.10;;;;;;;2.45;57.03;99346.85;104799;1264;60464;-59
2024/01/14 09:42:34;;;;;;;9.90;4.60;;;;;;;2.40;57.15;99344.67;105692;1261;342488;-59
2024/01/14 09:47:44;;;;;;;9.60;3.70;;;;;;;2.17;57.79;99342.48;102925;1284;600419;-60
2024/01/14 09:50:12;;;;;;;6.80;2.60;;;;;;;2.57;56.74;99339.45;104539;1269;61288;-57
2024/01/14 09:52:40;;;;;;;7.10;3.30;;;;;;;2.69;56.54;99327.98;105359;1264;60663;-59
2024/01/14 09:55:09;;;;;;;7.40;2.50;;;;;;;2.75;56.38;99329.67;104511;1270;72234;-59
2024/01/14 09:57:36;;;;;;;9.20;3.40;;;;;;;2.76;56.45;99327.88;104627;1264;69952;-60
2024/01/14 10:00:05;;;;;;;8.30;2.70;;;;;;;2.74;56.46;99322.43;105326;1255;72638;-60
2024/01/14 10:02:33;;;;;;;9.50;3.60;;;;;;;2.75;56.54;99318.92;105449;1255;234806;-60
2024/01/14 10:05:01;;;;;;;10.60;4.20;;;;;;;2.77;56.51;99319.83;105297;1259;59311;-60
2024/01/14 10:07:29;;;;;;;10.00;4.00;;;;;;;2.76;56.27;99312.94;105356;1255;72546;-62
2024/01/14 10:09:57;;;;;;;13.60;3.60;;;;;;;2.76;56.21;99314.89;105827;1257;71012;-55
2024/01/14 10:12:25;;;;;;;7.70;3.50;;;;;;;2.73;55.99;99307.83;105745;1259;71211;-57
2024/01/14 10:14:57;;;;;;;6.60;2.90;;;;;;;2.72;55.98;99306.48;105810;1254;60980;-58
2024/01/14 10:17:26;;;;;;;8.70;3.90;;;;;;;2.77;55.57;99302.16;105797;1257;60147;-57
2024/01/14 10:19:54;;;;;;;9.50;2.60;;;;;;;2.83;55.25;99301.14;105833;1254;73428;-57
2024/01/14 10:22:22;;;;;;;9.90;4.20;;;;;;;2.81;55.08;99301.21;105969;1255;69933;-56
2024/01/14 10:24:51;;;;;;;11.30;4.30;;;;;;;2.80;55.21;99299.02;105483;1253;75252;-60
2024/01/14 10:27:23;;;;;;;12.20;3.80;;;;;;;2.80;55.08;99290.70;105930;1259;59759;-59
2024/01/14 10:30:11;;;;;;;10.00;3.20;;;;;;;2.80;55.03;99288.46;105545;1255;59548;-59
2024/01/14 10:32:42;;;;;;;8.90;3.90;;;;;;;2.77;54.89;99276.88;105450;1260;62845;-56
2024/01/14 10:35:29;;;;;;;8.10;3.60;;;;;;;2.76;54.90;99276.12;105803;1260;60282;-57
2024/01/14 10:37:58;;;;;;;13.10;5.10;;;;;;;2.76;55.01;99275.42;105690;1257;71539;-57
2024/01/14 10:40:26;;;;;;;10.70;4.20;;;;;;;2.75;54.99;99270.44;105297;1259;60218;-57
2024/01/14 10:42:54;;;;;;;10.30;4.80;;;;;;;2.72;54.91;99267.69;105379;1254;59697;-57
2024/01/14 10:45:22;;;;;;;8.40;3.30;;;;;;;2.74;54.96;99270.17;105334;1260;75062;-57
2024/01/14 10:47:54;;;;;;;9.30;3.50;;;;;;;2.86;54.95;99255.05;105323;1254;72301;-57
2024/01/14 10:50:21;;;;;;;12.90;5.10;;;;;;;2.99;54.75;99254.17;105958;1260;73400;-57
2024/01/14 10:52:56;;;;;;;8.90;4.10;;;;;;;3.02;54.74;99252.73;105947;1259;61611;-57
2024/01/14 10:55:40;;;;;;;11.90;6.20;;;;;;;2.99;54.95;99248.23;105987;1254;59513;-57
2024/01/14 10:58:08;;;;;;;8.90;3.60;;;;;;;2.95;55.07;99251.14;105445;1253;66431;-58
2024/01/14 11:00:35;;;;;;;11.20;5.60;;;;;;;2.91;55.31;99250.35;105158;1262;72451;-59
2024/01/14 11:03:05;;;;;;;10.30;4.30;;;;;;;2.89;55.59;99247.72;106233;1260;72677;-56
2024/01/14 11:05:33;;;;;;;10.30;3.90;;;;;;;2.87;55.99;99244.00;105574;1258;59819;-53
2024/01/14 11:08:03;;;;;;;12.60;5.60;;;;;;;2.83;56.41;99247.05;105738;1254;59553;-58
2024/01/14 11:10:31;;;;;;;8.90;3.90;;;;;;;2.77;56.92;99240.38;105611;1255;74232;-58
2024/01/14 11:13:05;;;;;;;8.80;3.70;;;;;;;2.72;57.47;99239.13;105319;1255;71354;-57
2024/01/14 11:15:39;;;;;;;12.10;3.90;;;;;;;2.73;57.78;99239.41;105331;1259;62440;-58
2024/01/14 11:18:14;;;;;;;9.40;3.50;;;;;;;2.78;57.95;99235.92;105464;1255;59635;-58
2024/01/14 11:20:42;;;;;;;11.70;4.70;;;;;;;2.85;57.86;99230.16;105346;1255;59599;-57
2024/01/14 11:23:33;;;;;;;7.70;3.00;;;;;;;2.91;57.83;99229.35;105685;1254;66443;-60
2024/01/14 11:26:01;;;;;;;9.40;4.90;;;;;;;2.93;57.83;99225.77;105431;1254;70471;-60
2024/01/14 11:28:28;;;;;;;9.40;4.40;;;;;;;2.91;57.45;99223.31;105322;1255;71990;-56